Time;durP1;ratioP1;P1;durP2;ratioP2;P2;SDS_P1;SDS_P2;PMS_P1;PMS_P2;Temp;Humidity;BMP_temperature;BMP_pressure;BME280_temperature;BME280_humidity;BME280_pressure;Samples;Min_cycle;Max_cycle;Signal;HPM_P1;HPM_P2
2022/02/04 00:07:57;;;;;;;13.57;8.85;;;8.60;94.00;;;;;;4975760;28;20037;-75
2022/02/04 00:20:14;;;;;;;13.25;8.23;;;8.60;94.00;;;;;;4969889;28;20038;-72
2022/02/04 00:21:49;;;;;;;14.40;8.82;;;8.50;93.90;;;;;;4970738;28;20759;-72
2022/02/04 00:24:15;;;;;;;12.23;7.90;;;8.50;93.90;;;;;;4975109;28;20393;-72
2022/02/04 00:26:49;;;;;;;16.10;8.60;;;8.50;94.00;;;;;;4972773;28;20076;-73
2022/02/04 00:31:46;;;;;;;16.95;9.73;;;8.40;94.00;;;;;;4973953;28;20089;-69
2022/02/04 00:34:16;;;;;;;15.45;9.07;;;8.40;94.20;;;;;;4973872;28;20057;-69
2022/02/04 00:39:21;;;;;;;16.05;8.75;;;8.40;94.20;;;;;;4971789;28;20031;-71
2022/02/04 00:41:47;;;;;;;17.00;9.35;;;8.30;94.20;;;;;;4970631;28;20030;-71
2022/02/04 00:44:31;;;;;;;15.52;9.23;;;8.30;94.20;;;;;;4974956;28;20031;-71
2022/02/04 00:47:06;;;;;;;16.13;9.10;;;8.30;94.10;;;;;;4968945;28;20124;-70
2022/02/04 00:52:43;;;;;;;17.58;9.07;;;8.30;94.10;;;;;;4986445;28;20061;-71
2022/02/04 00:55:28;;;;;;;15.52;9.25;;;8.20;94.00;;;;;;4973798;28;20121;-71
2022/02/04 01:06:27;;;;;;;14.82;8.77;;;8.20;94.00;;;;;;4973956;28;20101;-72
2022/02/04 01:13:07;;;;;;;15.57;8.95;;;8.20;94.00;;;;;;4972601;28;20030;-73
2022/02/04 01:28:21;;;;;;;16.02;9.48;;;8.10;94.10;;;;;;4986018;28;20026;-77
2022/02/04 01:30:47;;;;;;;18.27;9.02;;;8.10;94.00;;;;;;4970769;28;20030;-71
2022/02/04 01:33:13;;;;;;;16.23;9.15;;;8.10;93.90;;;;;;4973432;28;20032;-72
2022/02/04 01:35:39;;;;;;;17.50;8.98;;;8.10;93.90;;;;;;4970308;28;20149;-72
2022/02/04 01:38:05;;;;;;;15.23;8.88;;;8.10;93.90;;;;;;4975384;28;20052;-76
2022/02/04 01:40:31;;;;;;;20.25;10.20;;;8.10;93.90;;;;;;4982776;28;20035;-76
2022/02/04 01:42:57;;;;;;;16.50;8.80;;;8.10;93.70;;;;;;4972115;28;20088;-75
2022/02/04 01:45:22;;;;;;;17.70;9.68;;;8.10;93.80;;;;;;4972551;28;20149;-73
2022/02/04 01:47:57;;;;;;;17.95;8.85;;;8.10;93.80;;;;;;4970385;28;20114;-75
2022/02/04 01:50:25;;;;;;;19.55;9.20;;;8.10;93.70;;;;;;4987244;28;20109;-75
2022/02/04 01:52:51;;;;;;;19.58;9.43;;;8.00;93.80;;;;;;4977887;28;20038;-73
2022/02/04 01:55:18;;;;;;;19.58;10.43;;;8.00;93.80;;;;;;4967806;28;20031;-72
2022/02/04 01:57:44;;;;;;;18.63;9.77;;;8.00;93.80;;;;;;4972597;28;20277;-75
2022/02/04 02:00:11;;;;;;;20.23;10.05;;;8.00;93.80;;;;;;4975639;28;20034;-72
2022/02/04 02:02:37;;;;;;;19.63;8.65;;;8.00;93.80;;;;;;4986593;28;20482;-79
2022/02/04 02:05:03;;;;;;;17.65;10.10;;;8.00;93.80;;;;;;4973939;28;20029;-73
2022/02/04 02:07:29;;;;;;;18.48;9.85;;;8.00;93.70;;;;;;5003061;28;20034;-71
2022/02/04 02:10:04;;;;;;;18.58;9.82;;;8.00;93.70;;;;;;4972198;28;20019;-68
2022/02/04 02:12:37;;;;;;;17.35;9.40;;;8.10;93.60;;;;;;4967937;28;20057;-69
2022/02/04 02:34:39;;;;;;;18.48;10.00;;;8.00;93.40;;;;;;4976198;28;20037;-68
2022/02/04 02:44:51;;;;;;;18.40;9.82;;;7.90;93.30;;;;;;4974842;28;20038;-68
2022/02/04 02:58:16;;;;;;;16.77;9.38;;;8.00;93.50;;;;;;4918964;28;20456;-69
2022/02/04 03:03:10;;;;;;;19.45;9.15;;;7.90;93.40;;;;;;4979010;28;20030;-69
2022/02/04 03:05:36;;;;;;;16.55;9.57;;;7.90;93.40;;;;;;4990382;28;20042;-70
2022/02/04 03:08:03;;;;;;;20.90;9.82;;;7.90;93.40;;;;;;5006229;28;20506;-69
2022/02/04 03:10:29;;;;;;;20.00;10.38;;;7.90;93.40;;;;;;4974236;28;20109;-70
2022/02/04 03:12:55;;;;;;;21.88;10.30;;;7.90;93.40;;;;;;5005416;28;20043;-69
2022/02/04 03:15:21;;;;;;;17.27;9.38;;;8.00;93.30;;;;;;4976253;28;20081;-69
2022/02/04 03:17:59;;;;;;;20.30;9.90;;;8.00;93.30;;;;;;4991141;28;20042;-69
2022/02/04 03:20:25;;;;;;;18.55;10.05;;;8.00;93.20;;;;;;4985190;28;20030;-69
2022/02/04 03:22:53;;;;;;;15.73;9.50;;;7.90;93.30;;;;;;4991189;28;20041;-70
2022/02/04 03:25:22;;;;;;;16.42;10.52;;;8.00;93.30;;;;;;4973274;28;20509;-69
2022/02/04 03:27:52;;;;;;;16.33;9.48;;;8.00;93.30;;;;;;4990148;28;20029;-68
2022/02/04 03:30:24;;;;;;;16.20;9.73;;;8.00;93.20;;;;;;4972653;28;20057;-69
2022/02/04 03:32:56;;;;;;;14.77;8.93;;;8.00;93.30;;;;;;4974766;28;20042;-69
2022/02/04 03:35:23;;;;;;;16.08;9.00;;;8.00;93.30;;;;;;5005934;28;20071;-69
2022/02/04 03:37:52;;;;;;;18.00;9.75;;;8.00;93.30;;;;;;5004988;28;20035;-69
2022/02/04 03:40:17;;;;;;;18.88;10.43;;;8.00;93.30;;;;;;4974412;28;20038;-69
2022/02/04 03:42:47;;;;;;;15.65;9.23;;;8.00;93.30;;;;;;4976122;28;20023;-69
2022/02/04 03:45:14;;;;;;;16.27;9.48;;;8.10;93.30;;;;;;4976459;28;20121;-69
2022/02/04 03:47:40;;;;;;;17.77;9.20;;;8.00;93.20;;;;;;4974088;28;20073;-68
2022/02/04 03:50:07;;;;;;;18.20;9.20;;;8.00;93.10;;;;;;4988712;28;20050;-68
2022/02/04 03:52:32;;;;;;;17.10;9.25;;;8.00;93.10;;;;;;4974028;28;20026;-70
2022/02/04 03:54:58;;;;;;;16.90;9.93;;;8.00;93.10;;;;;;4974156;28;20062;-68
2022/02/04 03:57:24;;;;;;;17.70;8.82;;;8.00;93.00;;;;;;4975081;28;20145;-70
2022/02/04 03:59:50;;;;;;;17.95;9.77;;;8.00;93.00;;;;;;4974762;28;20030;-68
2022/02/04 04:02:16;;;;;;;16.05;9.27;;;8.00;93.00;;;;;;4966195;28;20530;-70
2022/02/04 04:04:42;;;;;;;19.25;10.88;;;8.00;93.20;;;;;;4974113;28;20033;-70
2022/02/04 04:07:08;;;;;;;20.90;11.23;;;8.00;92.70;;;;;;4971310;28;20037;-70
2022/02/04 04:09:37;;;;;;;19.63;10.50;;;8.00;92.70;;;;;;4973859;28;20122;-72
2022/02/04 04:12:03;;;;;;;20.77;10.63;;;7.90;92.70;;;;;;4972684;28;20030;-71
2022/02/04 04:14:29;;;;;;;17.90;9.57;;;7.90;92.70;;;;;;4974013;28;20140;-72
2022/02/04 04:16:54;;;;;;;17.90;9.75;;;7.90;92.80;;;;;;4975020;28;20825;-71
2022/02/04 04:19:20;;;;;;;19.25;9.90;;;7.90;92.90;;;;;;4973673;28;20027;-71
2022/02/04 04:21:46;;;;;;;17.13;10.07;;;7.90;92.90;;;;;;4973352;28;20174;-71
2022/02/04 04:24:12;;;;;;;21.83;10.77;;;7.90;93.00;;;;;;4974455;28;20041;-72
2022/02/04 04:26:40;;;;;;;19.40;9.70;;;7.80;93.00;;;;;;4972919;28;20031;-72
2022/02/04 04:29:07;;;;;;;21.70;11.02;;;7.90;93.10;;;;;;4976009;28;20173;-70
2022/02/04 04:31:32;;;;;;;17.48;10.07;;;7.80;93.00;;;;;;4986692;28;20438;-70
2022/02/04 04:33:58;;;;;;;19.00;11.07;;;7.80;92.90;;;;;;4989797;28;20446;-70
2022/02/04 04:36:24;;;;;;;19.33;9.98;;;7.80;93.00;;;;;;4972778;28;20047;-71
2022/02/04 04:39:18;;;;;;;20.25;10.32;;;7.80;92.90;;;;;;4972602;28;20057;-70
2022/02/04 05:25:44;;;;;;;26.63;11.75;;;7.80;93.10;;;;;;4987687;28;20502;-70
2022/02/04 05:28:36;;;;;;;18.02;10.48;;;7.70;93.20;;;;;;4972067;28;20498;-71
2022/02/04 05:31:02;;;;;;;15.52;9.30;;;7.70;93.20;;;;;;4987984;28;20459;-71
2022/02/04 05:33:28;;;;;;;18.52;9.98;;;7.70;93.30;;;;;;4971241;28;20089;-71
2022/02/04 05:35:54;;;;;;;17.73;8.80;;;7.70;93.20;;;;;;4972755;28;20039;-71
2022/02/04 05:38:21;;;;;;;15.63;9.35;;;7.70;93.30;;;;;;4971484;28;20038;-71
2022/02/04 05:40:49;;;;;;;16.13;9.32;;;7.70;93.30;;;;;;4972183;28;20043;-71
2022/02/04 05:43:19;;;;;;;15.50;8.88;;;7.70;93.20;;;;;;4972771;28;20070;-71
2022/02/04 05:45:55;;;;;;;16.45;9.65;;;7.70;93.20;;;;;;5002006;28;20035;-71
2022/02/04 05:48:22;;;;;;;24.13;12.00;;;7.80;93.20;;;;;;4972676;28;20031;-71
2022/02/04 05:51:56;;;;;;;17.77;10.70;;;7.80;93.00;;;;;;4969747;28;20027;-71
2022/02/04 05:53:55;;;;;;;18.00;9.90;;;7.70;93.00;;;;;;4973689;28;20055;-71
2022/02/04 06:22:41;;;;;;;19.45;10.98;;;7.70;93.10;;;;;;4975056;28;20045;-72
2022/02/04 06:25:08;;;;;;;19.42;10.23;;;7.70;93.10;;;;;;4977510;28;20710;-72
2022/02/04 06:27:35;;;;;;;20.65;10.98;;;7.60;93.10;;;;;;4989593;28;20049;-72
2022/02/04 06:30:02;;;;;;;18.95;9.70;;;7.60;93.20;;;;;;4975839;28;20341;-71
2022/02/04 06:32:27;;;;;;;18.77;10.82;;;7.60;93.20;;;;;;4975123;28;20030;-72
2022/02/04 06:34:53;;;;;;;20.08;10.43;;;7.60;93.20;;;;;;4976544;28;20479;-73
2022/02/04 06:37:19;;;;;;;20.70;11.07;;;7.60;93.10;;;;;;4974697;28;20034;-70
2022/02/04 06:39:45;;;;;;;20.70;10.63;;;7.70;93.30;;;;;;4978174;28;20395;-72
2022/02/04 06:42:18;;;;;;;21.90;10.65;;;7.60;93.20;;;;;;4991928;28;20034;-71
2022/02/04 06:44:44;;;;;;;20.67;11.05;;;7.60;93.10;;;;;;4974798;28;20053;-71
2022/02/04 06:47:10;;;;;;;20.23;10.40;;;7.60;93.10;;;;;;4978182;28;20113;-71
2022/02/04 06:49:35;;;;;;;20.25;11.50;;;7.60;93.20;;;;;;4975270;28;20031;-71
2022/02/04 06:52:03;;;;;;;20.30;11.07;;;7.70;93.10;;;;;;4974725;28;20034;-71
2022/02/04 06:54:30;;;;;;;21.75;11.40;;;7.70;92.90;;;;;;4975935;28;20043;-71
2022/02/04 06:56:55;;;;;;;22.08;11.52;;;7.60;93.00;;;;;;4975533;28;20023;-71
2022/02/04 06:59:21;;;;;;;20.77;11.30;;;7.60;92.90;;;;;;4976714;28;20034;-71
2022/02/04 07:01:47;;;;;;;18.42;10.10;;;7.70;92.90;;;;;;4976921;28;20041;-71
2022/02/04 07:04:13;;;;;;;20.38;10.35;;;7.60;92.80;;;;;;4978356;28;20045;-71
2022/02/04 07:06:43;;;;;;;19.63;10.55;;;7.60;92.90;;;;;;4989957;28;20827;-71
2022/02/04 07:14:18;;;;;;;17.02;9.73;;;7.70;92.50;;;;;;4985568;28;20126;-71
2022/02/04 07:19:47;;;;;;;17.17;9.50;;;7.70;92.30;;;;;;4975022;28;20088;-71
2022/02/04 07:22:15;;;;;;;15.80;8.88;;;7.80;92.20;;;;;;5005502;28;20053;-71
2022/02/04 07:24:41;;;;;;;18.65;9.68;;;7.70;91.80;;;;;;4975096;28;20043;-70
2022/02/04 07:27:07;;;;;;;15.95;9.35;;;7.70;92.00;;;;;;4974316;28;20054;-71
2022/02/04 07:29:33;;;;;;;14.85;8.18;;;7.80;92.00;;;;;;4974619;28;20081;-71
2022/02/04 07:32:04;;;;;;;17.48;10.02;;;7.70;92.10;;;;;;4975259;28;20154;-71
2022/02/04 07:42:44;;;;;;;14.30;8.65;;;7.80;91.70;;;;;;4974192;28;20395;-71
2022/02/04 07:45:09;;;;;;;14.38;7.50;;;7.80;91.70;;;;;;4975491;28;20038;-71
2022/02/04 07:47:36;;;;;;;13.38;7.55;;;7.90;92.10;;;;;;4973686;28;20023;-71
2022/02/04 07:50:05;;;;;;;14.23;7.88;;;8.00;91.40;;;;;;4976869;28;20100;-71
2022/02/04 07:52:30;;;;;;;14.20;7.57;;;7.90;91.50;;;;;;5004531;28;20042;-71
2022/02/04 07:54:56;;;;;;;11.77;6.63;;;7.90;91.40;;;;;;4974671;28;20034;-71
2022/02/04 07:57:22;;;;;;;12.38;6.93;;;7.90;91.20;;;;;;4987811;28;20175;-71
2022/02/04 07:59:48;;;;;;;14.13;7.30;;;8.00;91.40;;;;;;5004661;28;20023;-71
2022/02/04 08:02:14;;;;;;;11.57;7.22;;;8.00;91.30;;;;;;4975581;28;20458;-71
2022/02/04 08:04:42;;;;;;;9.98;6.50;;;7.90;91.10;;;;;;5004502;28;20630;-71
2022/02/04 08:07:12;;;;;;;12.85;6.80;;;7.90;91.30;;;;;;4970736;28;20104;-71
2022/02/04 08:13:13;;;;;;;11.55;7.07;;;7.90;91.50;;;;;;4973678;28;20839;-71
2022/02/04 08:15:42;;;;;;;12.95;7.68;;;7.90;91.50;;;;;;4974312;28;20053;-72
2022/02/04 08:18:30;;;;;;;10.80;6.88;;;7.90;91.50;;;;;;4976570;28;20049;-71
2022/02/04 08:26:43;;;;;;;12.35;6.97;;;7.80;91.40;;;;;;4973550;28;20038;-71
2022/02/04 09:00:47;;;;;;;9.82;6.03;;;7.90;91.50;;;;;;4971941;28;20182;-71
2022/02/04 09:03:25;;;;;;;11.30;6.47;;;7.80;91.40;;;;;;4988319;28;20036;-71
2022/02/04 09:06:06;;;;;;;10.15;6.22;;;7.80;91.40;;;;;;4968585;28;20070;-70
2022/02/04 09:08:33;;;;;;;11.07;6.00;;;7.80;91.60;;;;;;4972148;28;20047;-70
2022/02/04 09:11:07;;;;;;;12.75;7.20;;;7.70;91.50;;;;;;4972358;28;20027;-69
2022/02/04 09:19:08;;;;;;;11.77;6.35;;;7.70;92.20;;;;;;4974955;28;20771;-69
2022/02/04 09:22:04;;;;;;;13.02;7.13;;;7.80;92.00;;;;;;4970712;28;20046;-69
2022/02/04 09:24:30;;;;;;;12.30;7.10;;;7.70;92.10;;;;;;4970083;28;20035;-69
2022/02/04 09:26:56;;;;;;;11.20;6.70;;;7.80;92.20;;;;;;4974734;28;20030;-71
2022/02/04 09:29:22;;;;;;;11.07;6.72;;;7.90;91.90;;;;;;4971955;28;20038;-70
2022/02/04 09:31:48;;;;;;;14.43;6.68;;;7.90;91.80;;;;;;4973287;28;20118;-70
2022/02/04 09:34:14;;;;;;;12.43;7.40;;;7.90;92.00;;;;;;5002826;28;20672;-70
2022/02/04 09:36:40;;;;;;;13.77;7.18;;;7.90;91.80;;;;;;4972658;28;20046;-68
2022/02/04 09:39:08;;;;;;;12.30;6.75;;;8.00;91.90;;;;;;4973735;28;20117;-68
2022/02/04 09:41:35;;;;;;;10.68;6.32;;;8.00;92.00;;;;;;5002259;28;20303;-65
2022/02/04 09:44:01;;;;;;;11.02;7.07;;;8.00;91.80;;;;;;4974444;28;20038;-67
2022/02/04 09:46:29;;;;;;;10.20;6.82;;;8.00;91.80;;;;;;4969057;28;20031;-70
2022/02/04 09:48:57;;;;;;;13.02;7.47;;;8.10;91.90;;;;;;4988281;28;20031;-69
2022/02/04 09:51:34;;;;;;;14.63;7.53;;;8.00;91.90;;;;;;4974260;28;20041;-69
2022/02/04 10:08:37;;;;;;;12.90;7.00;;;8.00;92.20;;;;;;4970125;28;20392;-67
2022/02/04 10:19:35;;;;;;;14.25;6.93;;;8.00;92.40;;;;;;4968780;28;20104;-66
2022/02/04 10:22:02;;;;;;;12.07;7.05;;;8.10;92.00;;;;;;4970089;28;20470;-67
2022/02/04 10:24:30;;;;;;;11.43;6.90;;;8.20;92.00;;;;;;4970708;28;20039;-67
2022/02/04 10:27:10;;;;;;;13.27;7.45;;;8.30;91.80;;;;;;4974237;28;20030;-67
2022/02/04 10:29:38;;;;;;;10.88;6.72;;;8.30;91.70;;;;;;4969506;28;20072;-67
2022/02/04 10:32:04;;;;;;;11.15;6.60;;;8.30;91.70;;;;;;4975138;28;20058;-67
2022/02/04 10:34:31;;;;;;;12.80;7.03;;;8.40;91.80;;;;;;4970627;28;20107;-67
2022/02/04 10:39:44;;;;;;;12.00;7.40;;;8.50;91.60;;;;;;4972655;28;20042;-68
2022/02/04 10:43:00;;;;;;;11.23;7.23;;;8.60;91.80;;;;;;4987412;28;20035;-67
2022/02/04 10:47:56;;;;;;;10.60;6.60;;;8.70;91.50;;;;;;4971895;28;20039;-68
2022/02/04 11:01:14;;;;;;;10.20;6.53;;;8.70;90.90;;;;;;4975143;28;20038;-68
2022/02/04 11:03:48;;;;;;;11.60;7.20;;;8.60;91.00;;;;;;4974588;28;20035;-67
2022/02/04 11:06:30;;;;;;;11.40;7.30;;;8.70;91.10;;;;;;4975669;28;20289;-67
2022/02/04 11:09:28;;;;;;;12.57;7.32;;;8.90;91.30;;;;;;4977049;28;20061;-67
2022/02/04 11:31:04;;;;;;;9.18;6.00;;;9.30;90.00;;;;;;4972235;28;20109;-68
2022/02/04 11:33:54;;;;;;;7.68;5.10;;;9.40;90.20;;;;;;4974696;28;20085;-68
2022/02/04 11:54:54;;;;;;;6.85;4.55;;;9.60;88.70;;;;;;4970127;28;20058;-71
2022/02/04 11:57:26;;;;;;;7.22;4.95;;;9.50;89.00;;;;;;4975366;28;20046;-69
2022/02/04 12:00:00;;;;;;;6.20;4.53;;;9.50;89.30;;;;;;4971657;28;20031;-72
2022/02/04 12:02:29;;;;;;;6.05;4.32;;;9.40;88.70;;;;;;4974654;28;20026;-69
2022/02/04 12:05:04;;;;;;;6.78;4.45;;;9.30;90.10;;;;;;4976916;28;20623;-69
2022/02/04 12:07:44;;;;;;;7.85;4.38;;;9.30;90.00;;;;;;4974080;28;20035;-72
2022/02/04 12:10:12;;;;;;;7.07;4.05;;;9.50;89.80;;;;;;4971327;28;20032;-72
2022/02/04 12:12:57;;;;;;;5.75;3.58;;;9.60;89.30;;;;;;4987558;28;20407;-74
2022/02/04 12:15:31;;;;;;;6.72;4.10;;;9.60;88.40;;;;;;4985283;28;20034;-73
2022/02/04 12:18:18;;;;;;;5.63;3.63;;;9.60;88.10;;;;;;4968999;28;20049;-73
2022/02/04 12:20:50;;;;;;;6.55;4.20;;;9.50;89.10;;;;;;4970070;28;20037;-73
2022/02/04 12:23:28;;;;;;;6.22;4.03;;;9.50;88.10;;;;;;4971821;28;20038;-73
2022/02/04 12:26:01;;;;;;;6.82;4.47;;;9.40;88.80;;;;;;4983044;28;20272;-73
2022/02/04 12:28:42;;;;;;;5.32;3.70;;;9.40;89.90;;;;;;4973985;28;20027;-73
2022/02/04 12:31:08;;;;;;;5.43;3.65;;;9.40;89.40;;;;;;4972291;28;20030;-73
2022/02/04 12:33:49;;;;;;;5.10;3.15;;;9.50;88.50;;;;;;4973276;28;20768;-73
2022/02/04 12:36:31;;;;;;;5.25;3.88;;;9.30;89.40;;;;;;4988439;28;20042;-74
2022/02/04 12:39:00;;;;;;;14.80;8.10;;;9.40;89.40;;;;;;4975802;28;20136;-74
2022/02/04 12:41:34;;;;;;;6.75;4.68;;;9.40;89.40;;;;;;4987145;28;20097;-73
2022/02/04 12:44:10;;;;;;;8.38;5.05;;;9.40;89.70;;;;;;4973797;28;20536;-71
2022/02/04 12:46:45;;;;;;;5.80;3.43;;;9.50;88.90;;;;;;4989091;28;20023;-72
2022/02/04 12:49:13;;;;;;;6.13;3.80;;;9.70;88.20;;;;;;4971549;28;20566;-73
2022/02/04 12:51:55;;;;;;;9.02;5.72;;;9.70;87.60;;;;;;4971927;28;20156;-71
2022/02/04 12:54:43;;;;;;;10.77;6.07;;;9.80;88.40;;;;;;4990905;28;20057;-75
2022/02/04 13:08:18;;;;;;;8.23;4.50;;;9.80;87.90;;;;;;4974827;28;20085;-73
2022/02/04 13:10:54;;;;;;;5.78;4.25;;;9.90;86.80;;;;;;4987141;28;20137;-73
2022/02/04 13:13:20;;;;;;;4.82;4.18;;;9.80;87.00;;;;;;4972163;28;20765;-72
2022/02/04 13:15:46;;;;;;;7.35;4.55;;;9.80;87.00;;;;;;5006112;28;20046;-73
2022/02/04 13:18:14;;;;;;;6.80;4.85;;;9.70;87.40;;;;;;4973639;28;20033;-73
2022/02/04 13:20:42;;;;;;;5.70;4.18;;;9.70;87.70;;;;;;4970027;28;20527;-74
2022/02/04 13:23:11;;;;;;;7.32;4.13;;;9.70;86.90;;;;;;4989626;28;20117;-75
2022/02/04 13:25:42;;;;;;;5.35;3.50;;;9.70;87.00;;;;;;4958804;28;20483;-73
2022/02/04 13:28:16;;;;;;;7.25;5.00;;;9.80;86.70;;;;;;4975009;28;20022;-72
2022/02/04 13:31:00;;;;;;;6.15;4.13;;;9.90;86.40;;;;;;4971239;28;20081;-72
2022/02/04 13:33:31;;;;;;;5.50;3.97;;;10.00;86.50;;;;;;4968613;28;20096;-72
2022/02/04 13:36:27;;;;;;;5.43;3.97;;;10.00;85.90;;;;;;4974035;28;20091;-71
2022/02/04 13:46:56;;;;;;;8.40;4.53;;;10.00;86.40;;;;;;4970225;28;20118;-72
2022/02/04 13:52:23;;;;;;;4.30;2.80;;;10.10;85.10;;;;;;4972338;28;20030;-68
2022/02/04 14:01:19;;;;;;;3.42;3.00;;;10.00;85.00;;;;;;4958287;28;20122;-67
2022/02/04 14:03:52;;;;;;;3.35;2.67;;;10.00;84.80;;;;;;4969087;28;20030;-67
2022/02/04 14:06:22;;;;;;;3.90;2.70;;;10.00;84.20;;;;;;4970787;28;20038;-68
2022/02/04 14:11:28;;;;;;;3.28;2.15;;;9.90;84.40;;;;;;4969443;28;20027;-72
2022/02/04 14:13:54;;;;;;;2.97;2.30;;;9.80;84.30;;;;;;4970185;28;20049;-70
2022/02/04 14:16:21;;;;;;;3.67;2.50;;;9.80;84.40;;;;;;4966710;28;20042;-72
2022/02/04 14:18:48;;;;;;;2.90;2.00;;;9.80;84.60;;;;;;4971404;28;20047;-71
2022/02/04 14:21:14;;;;;;;2.67;2.05;;;9.70;85.30;;;;;;4971306;28;20682;-70
2022/02/04 14:23:41;;;;;;;4.00;2.03;;;9.70;84.20;;;;;;4972309;28;20038;-70
2022/02/04 14:26:11;;;;;;;2.75;1.98;;;9.70;84.20;;;;;;4977450;28;20037;-69
2022/02/04 14:31:14;;;;;;;2.45;2.00;;;9.70;85.00;;;;;;4966633;28;20035;-68
2022/02/04 14:53:07;;;;;;;1.20;1.10;;;9.90;83.10;;;;;;4977227;28;20037;-68
2022/02/04 15:03:45;;;;;;;1.20;1.10;;;9.80;82.80;;;;;;4981192;28;20038;-72
2022/02/04 15:06:14;;;;;;;2.35;1.20;;;9.80;82.90;;;;;;4974071;28;20022;-69
2022/02/04 15:08:42;;;;;;;1.17;1.00;;;9.80;82.90;;;;;;4976571;28;20031;-68
2022/02/04 15:11:15;;;;;;;1.45;1.10;;;9.80;82.50;;;;;;4976381;28;20034;-68
2022/02/04 15:13:46;;;;;;;0.75;0.75;;;9.70;81.80;;;;;;4975181;28;20089;-68
2022/02/04 15:16:12;;;;;;;5.35;1.05;;;9.70;82.10;;;;;;4976876;28;20039;-69
2022/02/04 15:18:40;;;;;;;1.10;0.70;;;9.70;82.60;;;;;;4973699;28;20030;-68
2022/02/04 15:21:13;;;;;;;1.13;0.85;;;9.70;82.20;;;;;;4976240;28;20038;-68
2022/02/04 15:23:41;;;;;;;1.92;0.80;;;9.70;82.30;;;;;;4983396;28;20471;-69
2022/02/04 15:26:09;;;;;;;0.80;0.70;;;9.60;81.90;;;;;;4971174;28;20769;-67
2022/02/04 15:28:42;;;;;;;0.98;0.70;;;9.50;82.20;;;;;;4969137;28;20043;-67
2022/02/04 15:31:17;;;;;;;2.15;0.65;;;9.50;82.70;;;;;;4969390;28;20042;-66
2022/02/04 15:33:44;;;;;;;0.95;0.60;;;9.50;82.80;;;;;;4987950;28;20045;-66
2022/02/04 15:36:10;;;;;;;0.63;0.63;;;9.60;83.10;;;;;;4975826;28;20455;-67
2022/02/04 15:38:36;;;;;;;1.77;0.68;;;9.60;82.40;;;;;;4970736;28;20029;-67
2022/02/04 15:41:03;;;;;;;0.90;0.63;;;9.60;81.80;;;;;;4965900;28;20030;-66
2022/02/04 15:43:30;;;;;;;2.42;0.77;;;9.60;81.90;;;;;;4973477;28;20026;-67
2022/02/04 16:06:26;;;;;;;1.20;1.05;;;9.30;82.70;;;;;;4968726;28;20038;-67
2022/02/04 16:08:55;;;;;;;0.90;0.80;;;9.30;82.40;;;;;;4969450;28;20388;-69
2022/02/04 16:16:34;;;;;;;3.10;0.73;;;9.20;83.00;;;;;;4972379;28;20030;-70
2022/02/04 16:21:50;;;;;;;1.55;1.00;;;9.10;83.60;;;;;;4971611;28;20067;-68
2022/02/04 16:28:36;;;;;;;0.90;0.70;;;9.00;84.10;;;;;;4973198;28;20038;-67
2022/02/04 16:29:44;;;;;;;1.27;0.85;;;9.10;83.60;;;;;;4971414;28;20252;-69
2022/02/04 16:32:10;;;;;;;0.80;0.60;;;9.10;82.80;;;;;;4989389;28;20034;-70
2022/02/04 16:34:36;;;;;;;0.50;0.40;;;9.00;83.60;;;;;;4968865;28;20034;-69
2022/02/04 16:37:14;;;;;;;0.77;0.50;;;9.10;83.80;;;;;;4975862;28;20027;-68
2022/02/04 16:39:40;;;;;;;1.75;1.00;;;9.10;83.30;;;;;;4986155;28;20572;-70
2022/02/04 16:42:15;;;;;;;0.63;0.50;;;9.00;83.30;;;;;;4972248;28;20034;-71
2022/02/04 16:44:42;;;;;;;1.67;0.80;;;9.00;83.20;;;;;;5000547;28;20038;-68
2022/02/04 16:47:08;;;;;;;0.60;0.60;;;9.10;83.10;;;;;;4970370;28;20030;-70
2022/02/04 16:49:35;;;;;;;1.73;0.95;;;9.00;83.00;;;;;;4973484;28;20034;-71
2022/02/04 16:52:01;;;;;;;1.60;0.93;;;9.10;83.50;;;;;;4970856;28;20043;-71
2022/02/04 16:54:28;;;;;;;3.85;1.80;;;9.10;83.40;;;;;;4972545;28;20042;-68
2022/02/04 16:56:55;;;;;;;4.82;1.05;;;9.00;83.50;;;;;;4974379;28;20034;-69
2022/02/04 16:59:22;;;;;;;2.08;1.00;;;9.10;83.50;;;;;;4974201;28;20749;-69
2022/02/04 17:01:48;;;;;;;0.95;0.85;;;9.10;83.00;;;;;;4971498;28;20058;-69
2022/02/04 17:04:15;;;;;;;0.70;0.65;;;9.00;83.80;;;;;;4976246;28;20130;-68
2022/02/04 17:06:45;;;;;;;0.60;0.55;;;9.00;83.30;;;;;;4987227;28;20030;-68
2022/02/04 17:11:45;;;;;;;0.65;0.65;;;9.10;83.30;;;;;;4972287;28;20583;-68
2022/02/04 17:14:12;;;;;;;1.23;0.95;;;9.20;82.40;;;;;;4975358;28;20061;-70
2022/02/04 17:16:42;;;;;;;1.67;1.20;;;9.10;83.00;;;;;;4971009;28;20049;-72
2022/02/04 17:19:23;;;;;;;1.15;1.05;;;9.10;82.50;;;;;;4973159;28;20030;-70
2022/02/04 17:21:50;;;;;;;0.80;0.80;;;9.20;82.80;;;;;;4972887;28;20038;-70
2022/02/04 17:24:18;;;;;;;2.03;1.17;;;9.20;82.20;;;;;;4976617;28;20038;-68
2022/02/04 17:26:44;;;;;;;1.33;0.93;;;9.30;82.10;;;;;;5005504;28;20065;-71
2022/02/04 17:29:12;;;;;;;3.38;2.00;;;9.20;82.20;;;;;;4973823;28;20034;-71
2022/02/04 17:31:38;;;;;;;0.88;0.60;;;9.10;82.70;;;;;;4972245;28;20077;-68
2022/02/04 17:34:06;;;;;;;1.00;0.70;;;9.10;82.00;;;;;;4974364;28;20034;-69
2022/02/04 17:36:36;;;;;;;1.05;0.75;;;9.20;81.90;;;;;;4971266;28;20043;-69
2022/02/04 17:39:18;;;;;;;0.65;0.60;;;9.10;81.80;;;;;;4971016;28;20076;-72
2022/02/04 17:41:45;;;;;;;0.98;0.85;;;9.10;82.20;;;;;;5002426;28;20042;-71
2022/02/04 17:44:15;;;;;;;0.70;0.70;;;9.00;82.60;;;;;;4969550;28;20104;-72
2022/02/04 17:46:41;;;;;;;0.60;0.60;;;9.00;82.60;;;;;;4974068;28;20042;-72
2022/02/04 17:49:22;;;;;;;1.25;0.80;;;9.10;82.60;;;;;;4969059;28;20388;-73
2022/02/04 17:51:53;;;;;;;1.00;0.60;;;9.10;82.40;;;;;;4974917;28;20101;-70
2022/02/04 17:54:29;;;;;;;0.75;0.68;;;9.00;83.00;;;;;;5001643;28;20074;-69
2022/02/04 18:02:09;;;;;;;0.63;0.60;;;9.10;82.60;;;;;;4972683;28;20033;-71
2022/02/04 18:07:24;;;;;;;1.13;0.60;;;9.00;83.40;;;;;;4977031;28;20118;-71
2022/02/04 18:09:50;;;;;;;0.85;0.75;;;9.00;82.40;;;;;;4981142;28;20530;-71
2022/02/04 18:12:24;;;;;;;1.20;0.68;;;9.00;82.90;;;;;;5002428;28;20450;-71
2022/02/04 18:14:51;;;;;;;1.52;0.80;;;9.00;83.00;;;;;;4976213;28;20101;-72
2022/02/04 18:17:17;;;;;;;1.02;0.77;;;9.00;83.30;;;;;;5007476;28;20676;-70
2022/02/04 18:19:44;;;;;;;0.90;0.60;;;9.00;83.40;;;;;;4973702;28;21133;-72
2022/02/04 18:22:10;;;;;;;2.30;1.40;;;9.00;82.90;;;;;;4976023;28;20129;-72
2022/02/04 18:24:37;;;;;;;1.25;0.95;;;8.90;83.50;;;;;;4989691;28;20050;-74
2022/02/04 18:27:05;;;;;;;2.03;1.45;;;8.90;83.50;;;;;;4968312;28;20583;-72
2022/02/04 18:29:30;;;;;;;1.00;0.70;;;8.80;83.40;;;;;;5007753;28;20516;-72
2022/02/04 18:31:56;;;;;;;1.00;0.73;;;8.70;83.70;;;;;;4973767;28;20042;-72
2022/02/04 18:34:22;;;;;;;0.90;0.60;;;8.70;84.20;;;;;;4975950;28;20041;-72
2022/02/04 18:36:50;;;;;;;1.80;0.63;;;8.80;83.80;;;;;;5006207;28;20771;-72
2022/02/04 18:44:24;;;;;;;0.75;0.75;;;8.70;84.60;;;;;;4975884;28;20045;-73
2022/02/04 18:57:18;;;;;;;1.42;0.90;;;8.70;85.30;;;;;;4976007;28;20142;-74
2022/02/04 18:59:47;;;;;;;1.50;1.20;;;8.70;84.20;;;;;;4975454;28;20153;-75
2022/02/04 19:02:12;;;;;;;0.68;0.60;;;8.60;85.00;;;;;;4962694;28;20053;-74
2022/02/04 19:04:47;;;;;;;0.63;0.57;;;8.50;84.80;;;;;;4975111;28;20030;-73
2022/02/04 19:07:18;;;;;;;1.70;0.98;;;8.50;85.60;;;;;;4974713;28;20030;-73
2022/02/04 19:09:46;;;;;;;1.92;1.30;;;8.50;85.80;;;;;;4987424;28;20423;-75
2022/02/04 19:12:16;;;;;;;1.17;1.02;;;8.40;85.90;;;;;;4976557;28;20168;-70
2022/02/04 19:14:50;;;;;;;0.75;0.75;;;8.50;85.70;;;;;;5008441;28;20137;-73
2022/02/04 19:17:29;;;;;;;1.20;0.60;;;8.50;85.30;;;;;;5005928;28;20070;-73
2022/02/04 19:22:34;;;;;;;1.02;0.70;;;8.40;85.70;;;;;;4976005;28;20049;-73
2022/02/04 19:25:03;;;;;;;1.15;0.93;;;8.40;85.80;;;;;;4978082;28;20034;-71
2022/02/04 19:27:29;;;;;;;1.17;0.88;;;8.50;85.90;;;;;;4985435;28;20034;-72
2022/02/04 19:29:55;;;;;;;1.00;0.65;;;8.40;85.70;;;;;;4971982;28;20507;-72
2022/02/04 19:32:22;;;;;;;1.30;0.90;;;8.40;85.90;;;;;;4975287;28;20030;-72
2022/02/04 19:34:48;;;;;;;0.82;0.82;;;8.40;85.80;;;;;;4973137;28;20462;-71
2022/02/04 19:37:14;;;;;;;1.70;1.05;;;8.40;86.40;;;;;;5003987;28;20039;-71
2022/02/04 19:39:43;;;;;;;1.10;1.00;;;8.40;86.50;;;;;;4971272;28;20029;-72
2022/02/04 19:42:33;;;;;;;0.93;0.85;;;8.50;86.00;;;;;;4974871;28;20061;-72
2022/02/04 19:45:23;;;;;;;0.77;0.70;;;8.50;85.80;;;;;;4975535;28;20060;-72
2022/02/04 19:48:21;;;;;;;1.45;0.88;;;8.50;85.70;;;;;;4971774;28;20795;-67
2022/02/04 19:50:48;;;;;;;0.95;0.95;;;8.50;85.70;;;;;;4968355;28;20069;-72
2022/02/04 20:25:42;;;;;;;1.27;1.10;;;8.40;89.70;;;;;;4971099;28;20721;-71
2022/02/04 20:28:10;;;;;;;1.10;1.00;;;8.30;89.90;;;;;;4971536;28;20039;-72
2022/02/04 20:30:39;;;;;;;0.80;0.80;;;8.30;90.10;;;;;;4971590;28;20030;-72
2022/02/04 20:33:06;;;;;;;1.63;1.00;;;8.20;90.40;;;;;;4970879;28;20062;-71
2022/02/04 20:35:32;;;;;;;0.85;0.85;;;8.20;90.50;;;;;;4970983;28;20027;-71
2022/02/04 20:37:58;;;;;;;1.42;1.33;;;8.20;90.70;;;;;;4971821;28;20748;-73